sensor_id;sensor_type;location;lat;lon;timestamp;pressure;altitude;pressure_sealevel;temperature;humidity
58239;BME280;44037;55.638;37.356;2023-05-10T00:01:00;100174.81;;;9.06;37.31
58239;BME280;44037;55.638;37.356;2023-05-10T00:03:28;100174.81;;;9.06;36.93
58239;BME280;44037;55.638;37.356;2023-05-10T00:05:56;100183.50;;;9.08;37.42
58239;BME280;44037;55.638;37.356;2023-05-10T00:08:23;100182.69;;;9.11;37.08
58239;BME280;44037;55.638;37.356;2023-05-10T00:10:51;100180.94;;;9.10;37.52
58239;BME280;44037;55.638;37.356;2023-05-10T00:13:19;100175.81;;;9.11;37.42
58239;BME280;44037;55.638;37.356;2023-05-10T00:15:46;100180.94;;;9.10;38.42
58239;BME280;44037;55.638;37.356;2023-05-10T00:18:13;100179.16;;;9.09;38.88
58239;BME280;44037;55.638;37.356;2023-05-10T00:20:40;100178.31;;;9.08;38.81
58239;BME280;44037;55.638;37.356;2023-05-10T00:23:09;100173.97;;;9.05;39.11
58239;BME280;44037;55.638;37.356;2023-05-10T00:25:36;100183.38;;;9.03;38.64
58239;BME280;44037;55.638;37.356;2023-05-10T00:28:03;100170.38;;;9.00;38.27
58239;BME280;44037;55.638;37.356;2023-05-10T00:30:30;100172.03;;;8.98;38.13
58239;BME280;44037;55.638;37.356;2023-05-10T00:32:58;100177.13;;;8.95;38.44
58239;BME280;44037;55.638;37.356;2023-05-10T00:35:25;100175.41;;;8.94;38.18
58239;BME280;44037;55.638;37.356;2023-05-10T00:37:52;100174.50;;;8.92;37.86
58239;BME280;44037;55.638;37.356;2023-05-10T00:40:20;100174.50;;;8.92;37.84
58239;BME280;44037;55.638;37.356;2023-05-10T00:42:48;100170.16;;;8.91;37.46
58239;BME280;44037;55.638;37.356;2023-05-10T00:45:15;100172.69;;;8.89;37.62
58239;BME280;44037;55.638;37.356;2023-05-10T00:47:42;100182.16;;;8.89;38.17
58239;BME280;44037;55.638;37.356;2023-05-10T00:50:09;100184.75;;;8.89;37.14
58239;BME280;44037;55.638;37.356;2023-05-10T00:52:37;100185.59;;;8.88;36.60
58239;BME280;44037;55.638;37.356;2023-05-10T00:55:05;100195.88;;;8.86;38.57
58239;BME280;44037;55.638;37.356;2023-05-10T00:57:34;100188.16;;;8.88;39.65
58239;BME280;44037;55.638;37.356;2023-05-10T01:00:02;100177.72;;;8.83;39.19
58239;BME280;44037;55.638;37.356;2023-05-10T01:02:33;100185.44;;;8.82;39.59
58239;BME280;44037;55.638;37.356;2023-05-10T01:05:02;100178.56;;;8.82;40.52
58239;BME280;44037;55.638;37.356;2023-05-10T01:07:31;100175.13;;;8.82;40.38
58239;BME280;44037;55.638;37.356;2023-05-10T01:09:58;100175.97;;;8.82;40.74
58239;BME280;44037;55.638;37.356;2023-05-10T01:12:26;100175.13;;;8.82;40.24
58239;BME280;44037;55.638;37.356;2023-05-10T01:14:55;100170.78;;;8.81;40.04
58239;BME280;44037;55.638;37.356;2023-05-10T01:17:22;100170.78;;;8.81;39.72
58239;BME280;44037;55.638;37.356;2023-05-10T01:19:49;100158.72;;;8.81;39.90
58239;BME280;44037;55.638;37.356;2023-05-10T01:32:12;100173.34;;;8.81;38.32
58239;BME280;44037;55.638;37.356;2023-05-10T01:34:47;100168.09;;;8.78;38.98
58239;BME280;44037;55.638;37.356;2023-05-10T01:37:21;100169.81;;;8.77;39.22
58239;BME280;44037;55.638;37.356;2023-05-10T01:39:53;100166.34;;;8.76;40.25
58239;BME280;44037;55.638;37.356;2023-05-10T01:42:26;100182.78;;;8.79;40.01
58239;BME280;44037;55.638;37.356;2023-05-10T01:45:02;100175.78;;;8.74;39.88
58239;BME280;44037;55.638;37.356;2023-05-10T01:47:37;100175.69;;;8.71;38.77
58239;BME280;44037;55.638;37.356;2023-05-10T01:50:10;100161.03;;;8.70;39.08
58239;BME280;44037;55.638;37.356;2023-05-10T01:52:42;100164.50;;;8.71;39.47
58239;BME280;44037;55.638;37.356;2023-05-10T01:55:15;100166.25;;;8.72;40.63
58239;BME280;44037;55.638;37.356;2023-05-10T01:57:44;100168.94;;;8.76;40.34
58239;BME280;44037;55.638;37.356;2023-05-10T02:00:13;100170.72;;;8.79;39.88
58239;BME280;44037;55.638;37.356;2023-05-10T02:02:46;100169.94;;;8.82;40.33
58239;BME280;44037;55.638;37.356;2023-05-10T02:05:15;100164.81;;;8.85;40.41
58239;BME280;44037;55.638;37.356;2023-05-10T02:07:43;100164.91;;;8.88;40.97
58239;BME280;44037;55.638;37.356;2023-05-10T02:10:11;100165.00;;;8.91;41.60
58239;BME280;44037;55.638;37.356;2023-05-10T02:12:41;100163.34;;;8.95;41.64
58239;BME280;44037;55.638;37.356;2023-05-10T02:15:11;100164.25;;;8.97;41.89
58239;BME280;44037;55.638;37.356;2023-05-10T02:17:40;100168.69;;;9.01;42.55
58239;BME280;44037;55.638;37.356;2023-05-10T02:20:11;100171.28;;;9.02;41.28
58239;BME280;44037;55.638;37.356;2023-05-10T02:22:41;100168.72;;;9.02;40.63
58239;BME280;44037;55.638;37.356;2023-05-10T02:25:10;100160.06;;;9.02;40.19
58239;BME280;44037;55.638;37.356;2023-05-10T02:27:41;100160.13;;;9.03;40.80
58239;BME280;44037;55.638;37.356;2023-05-10T02:30:10;100163.56;;;9.04;39.58
58239;BME280;44037;55.638;37.356;2023-05-10T02:32:39;100166.19;;;9.05;39.87
58239;BME280;44037;55.638;37.356;2023-05-10T02:35:07;100158.38;;;9.04;39.62
58239;BME280;44037;55.638;37.356;2023-05-10T02:37:37;100153.28;;;9.05;39.95
58239;BME280;44037;55.638;37.356;2023-05-10T02:40:06;100156.00;;;9.12;40.28
58239;BME280;44037;55.638;37.356;2023-05-10T02:42:36;100153.50;;;9.16;39.76
58239;BME280;44037;55.638;37.356;2023-05-10T02:45:07;100156.25;;;9.22;39.72
58239;BME280;44037;55.638;37.356;2023-05-10T02:47:37;100159.84;;;9.29;40.25
58239;BME280;44037;55.638;37.356;2023-05-10T02:50:05;100163.41;;;9.34;39.73
58239;BME280;44037;55.638;37.356;2023-05-10T02:52:39;100155.72;;;9.39;40.36
58239;BME280;44037;55.638;37.356;2023-05-10T02:55:09;100161.06;;;9.47;40.08
58239;BME280;44037;55.638;37.356;2023-05-10T02:57:40;100160.34;;;9.52;39.40
58239;BME280;44037;55.638;37.356;2023-05-10T03:00:08;100155.28;;;9.57;39.63
58239;BME280;44037;55.638;37.356;2023-05-10T03:02:35;100154.50;;;9.61;39.38
58239;BME280;44037;55.638;37.356;2023-05-10T03:05:03;100152.88;;;9.66;39.13
58239;BME280;44037;55.638;37.356;2023-05-10T03:07:31;100152.09;;;9.71;39.21
58239;BME280;44037;55.638;37.356;2023-05-10T03:10:00;100147.91;;;9.76;38.94
58239;BME280;44037;55.638;37.356;2023-05-10T03:12:37;100149.75;;;9.83;39.40
58239;BME280;44037;55.638;37.356;2023-05-10T03:15:13;100150.81;;;9.91;39.04
58239;BME280;44037;55.638;37.356;2023-05-10T03:17:46;100150.13;;;10.00;39.18
58239;BME280;44037;55.638;37.356;2023-05-10T03:20:22;100145.09;;;10.09;39.06
58239;BME280;44037;55.638;37.356;2023-05-10T03:22:53;100151.34;;;10.19;38.95
58239;BME280;44037;55.638;37.356;2023-05-10T03:25:24;100141.16;;;10.30;39.40
58239;BME280;44037;55.638;37.356;2023-05-10T03:27:52;100142.25;;;10.40;39.31
58239;BME280;44037;55.638;37.356;2023-05-10T03:30:20;100136.28;;;10.45;39.20
58239;BME280;44037;55.638;37.356;2023-05-10T03:32:47;100138.13;;;10.53;38.51
58239;BME280;44037;55.638;37.356;2023-05-10T03:35:14;100145.16;;;10.58;37.93
58239;BME280;44037;55.638;37.356;2023-05-10T03:37:41;100141.81;;;10.64;37.42
58239;BME280;44037;55.638;37.356;2023-05-10T03:40:08;100143.59;;;10.68;37.33
58239;BME280;44037;55.638;37.356;2023-05-10T03:42:37;100140.22;;;10.74;37.49
58239;BME280;44037;55.638;37.356;2023-05-10T03:45:05;100139.50;;;10.81;37.04
58239;BME280;44037;55.638;37.356;2023-05-10T03:47:33;100137.88;;;10.89;36.85
58239;BME280;44037;55.638;37.356;2023-05-10T03:50:00;100141.44;;;10.95;35.64
58239;BME280;44037;55.638;37.356;2023-05-10T03:52:34;100138.00;;;10.96;35.78
58239;BME280;44037;55.638;37.356;2023-05-10T03:55:05;100138.06;;;11.02;35.99
58239;BME280;44037;55.638;37.356;2023-05-10T03:57:33;100138.13;;;11.06;35.04
58239;BME280;44037;55.638;37.356;2023-05-10T04:00:02;100135.59;;;11.10;35.26
58239;BME280;44037;55.638;37.356;2023-05-10T04:02:32;100135.66;;;11.14;34.20
58239;BME280;44037;55.638;37.356;2023-05-10T04:04:59;100137.47;;;11.18;34.67
58239;BME280;44037;55.638;37.356;2023-05-10T04:07:27;100134.94;;;11.23;34.82
58239;BME280;44037;55.638;37.356;2023-05-10T04:09:58;100133.28;;;11.30;35.09
58239;BME280;44037;55.638;37.356;2023-05-10T04:12:25;100133.41;;;11.37;34.43
58239;BME280;44037;55.638;37.356;2023-05-10T04:14:53;100137.75;;;11.40;34.42
58239;BME280;44037;55.638;37.356;2023-05-10T04:17:21;100121.41;;;11.47;34.26
58239;BME280;44037;55.638;37.356;2023-05-10T04:19:54;100125.03;;;11.59;34.30
58239;BME280;44037;55.638;37.356;2023-05-10T04:22:25;100126.94;;;11.74;34.08
58239;BME280;44037;55.638;37.356;2023-05-10T04:24:55;100125.34;;;11.83;33.76
58239;BME280;44037;55.638;37.356;2023-05-10T04:27:22;100128.00;;;11.90;34.15
58239;BME280;44037;55.638;37.356;2023-05-10T04:29:49;100129.78;;;11.95;32.93
58239;BME280;44037;55.638;37.356;2023-05-10T04:32:17;100124.72;;;12.02;33.64
58239;BME280;44037;55.638;37.356;2023-05-10T04:34:47;100129.16;;;12.13;33.54
58239;BME280;44037;55.638;37.356;2023-05-10T04:37:14;100127.53;;;12.25;32.68
58239;BME280;44037;55.638;37.356;2023-05-10T04:39:41;100116.38;;;12.35;32.65
58239;BME280;44037;55.638;37.356;2023-05-10T04:42:08;100114.72;;;12.45;31.92
58239;BME280;44037;55.638;37.356;2023-05-10T04:44:37;100112.19;;;12.53;32.24
58239;BME280;44037;55.638;37.356;2023-05-10T04:47:04;100108.00;;;12.67;32.23
58239;BME280;44037;55.638;37.356;2023-05-10T04:49:32;100110.72;;;12.83;31.94
58239;BME280;44037;55.638;37.356;2023-05-10T04:52:06;100112.56;;;13.02;31.51
58239;BME280;44037;55.638;37.356;2023-05-10T04:54:39;100106.59;;;13.17;31.52
58239;BME280;44037;55.638;37.356;2023-05-10T04:57:28;100111.09;;;13.42;31.23
58239;BME280;44037;55.638;37.356;2023-05-10T04:59:59;100109.44;;;13.62;31.55
58239;BME280;44037;55.638;37.356;2023-05-10T05:02:33;100100.00;;;13.83;31.27
58239;BME280;44037;55.638;37.356;2023-05-10T05:05:05;100099.19;;;14.06;30.83
58239;BME280;44037;55.638;37.356;2023-05-10T05:07:38;100093.13;;;14.28;30.25
58239;BME280;44037;55.638;37.356;2023-05-10T05:10:11;100095.75;;;14.52;30.38
58239;BME280;44037;55.638;37.356;2023-05-10T05:12:38;100095.75;;;14.75;29.66
58239;BME280;44037;55.638;37.356;2023-05-10T05:15:06;100096.63;;;14.99;29.66
58239;BME280;44037;55.638;37.356;2023-05-10T05:17:34;100093.97;;;15.17;29.08
58239;BME280;44037;55.638;37.356;2023-05-10T05:20:02;100093.94;;;15.33;28.81
58239;BME280;44037;55.638;37.356;2023-05-10T05:22:30;100086.03;;;15.47;28.83
58239;BME280;44037;55.638;37.356;2023-05-10T05:24:59;100086.91;;;15.55;28.03
58239;BME280;44037;55.638;37.356;2023-05-10T05:27:32;100084.25;;;15.61;28.08
58239;BME280;44037;55.638;37.356;2023-05-10T05:29:59;100090.31;;;15.65;27.85
58239;BME280;44037;55.638;37.356;2023-05-10T05:32:27;100079.84;;;15.68;27.99
58239;BME280;44037;55.638;37.356;2023-05-10T05:34:54;100079.84;;;15.74;28.22
58239;BME280;44037;55.638;37.356;2023-05-10T05:37:22;100075.41;;;15.89;27.99
58239;BME280;44037;55.638;37.356;2023-05-10T05:39:50;100079.69;;;16.02;27.25
58239;BME280;44037;55.638;37.356;2023-05-10T05:42:18;100077.06;;;16.05;27.52
58239;BME280;44037;55.638;37.356;2023-05-10T05:44:46;100065.72;;;16.09;27.30
58239;BME280;44037;55.638;37.356;2023-05-10T05:47:13;100068.31;;;16.14;27.51
58239;BME280;44037;55.638;37.356;2023-05-10T05:49:40;100065.59;;;16.26;27.14
58239;BME280;44037;55.638;37.356;2023-05-10T05:52:07;100069.88;;;16.40;27.21
58239;BME280;44037;55.638;37.356;2023-05-10T05:54:34;100066.22;;;16.61;26.99
58239;BME280;44037;55.638;37.356;2023-05-10T05:57:01;100064.22;;;16.83;26.44
58239;BME280;44037;55.638;37.356;2023-05-10T05:59:30;100065.84;;;17.00;26.21
58239;BME280;44037;55.638;37.356;2023-05-10T06:01:57;100064.84;;;17.10;25.84
58239;BME280;44037;55.638;37.356;2023-05-10T06:04:24;100061.28;;;17.19;25.01
58239;BME280;44037;55.638;37.356;2023-05-10T06:06:51;100057.72;;;17.25;25.40
58239;BME280;44037;55.638;37.356;2023-05-10T06:09:21;100063.72;;;17.34;24.88
58239;BME280;44037;55.638;37.356;2023-05-10T06:11:50;100066.25;;;17.41;24.58
58239;BME280;44037;55.638;37.356;2023-05-10T06:14:17;100053.16;;;17.41;24.26
58239;BME280;44037;55.638;37.356;2023-05-10T06:16:45;100059.25;;;17.44;24.25
58239;BME280;44037;55.638;37.356;2023-05-10T06:19:12;100048.81;;;17.40;23.31
58239;BME280;44037;55.638;37.356;2023-05-10T06:21:40;100055.03;;;17.31;23.00
58239;BME280;44037;55.638;37.356;2023-05-10T06:24:07;100056.00;;;17.22;23.23
58239;BME280;44037;55.638;37.356;2023-05-10T06:26:34;100055.13;;;17.23;24.04
58239;BME280;44037;55.638;37.356;2023-05-10T06:29:01;100049.75;;;17.35;23.58
58239;BME280;44037;55.638;37.356;2023-05-10T06:31:28;100047.84;;;17.45;23.26
58239;BME280;44037;55.638;37.356;2023-05-10T06:33:57;100053.09;;;17.45;22.62
58239;BME280;44037;55.638;37.356;2023-05-10T06:36:24;100044.47;;;17.39;22.80
58239;BME280;44037;55.638;37.356;2023-05-10T06:38:52;100052.38;;;17.35;22.70
58239;BME280;44037;55.638;37.356;2023-05-10T06:41:19;100047.19;;;17.29;22.88
58239;BME280;44037;55.638;37.356;2023-05-10T06:43:47;100048.94;;;17.32;23.41
58239;BME280;44037;55.638;37.356;2023-05-10T06:46:14;100052.13;;;17.54;22.97
58239;BME280;44037;55.638;37.356;2023-05-10T06:48:41;100041.38;;;17.74;22.62
58239;BME280;44037;55.638;37.356;2023-05-10T06:51:10;100046.34;;;17.94;22.68
58239;BME280;44037;55.638;37.356;2023-05-10T06:53:37;100040.97;;;18.04;22.41
58239;BME280;44037;55.638;37.356;2023-05-10T06:56:04;100036.53;;;18.09;22.05
58239;BME280;44037;55.638;37.356;2023-05-10T06:58:31;100039.31;;;18.00;22.32
58239;BME280;44037;55.638;37.356;2023-05-10T07:01:02;100042.03;;;17.89;22.32
58239;BME280;44037;55.638;37.356;2023-05-10T07:03:29;100035.84;;;17.94;21.88
58239;BME280;44037;55.638;37.356;2023-05-10T07:06:00;100041.09;;;17.98;22.24
58239;BME280;44037;55.638;37.356;2023-05-10T07:08:30;100039.22;;;18.04;22.44
58239;BME280;44037;55.638;37.356;2023-05-10T07:11:01;100034.72;;;18.13;22.27
58239;BME280;44037;55.638;37.356;2023-05-10T07:13:29;100029.38;;;18.20;21.40
58239;BME280;44037;55.638;37.356;2023-05-10T07:15:57;100032.78;;;18.24;21.42
58239;BME280;44037;55.638;37.356;2023-05-10T07:18:24;100025.69;;;18.32;21.33
58239;BME280;44037;55.638;37.356;2023-05-10T07:20:52;100016.75;;;18.42;21.56
58239;BME280;44037;55.638;37.356;2023-05-10T07:23:19;100022.78;;;18.49;21.93
58239;BME280;44037;55.638;37.356;2023-05-10T07:25:49;100020.84;;;18.59;21.78
58239;BME280;44037;55.638;37.356;2023-05-10T07:28:18;100010.81;;;18.81;21.30
58239;BME280;44037;55.638;37.356;2023-05-10T07:30:45;100020.16;;;18.98;22.06
58239;BME280;44037;55.638;37.356;2023-05-10T07:33:13;100010.16;;;19.17;21.40
58239;BME280;44037;55.638;37.356;2023-05-10T07:35:41;100007.19;;;19.34;20.95
58239;BME280;44037;55.638;37.356;2023-05-10T07:38:08;100005.19;;;19.45;21.10
58239;BME280;44037;55.638;37.356;2023-05-10T07:40:36;99994.56;;;19.52;20.72
58239;BME280;44037;55.638;37.356;2023-05-10T07:43:05;100002.28;;;19.58;20.45
58239;BME280;44037;55.638;37.356;2023-05-10T07:45:33;99997.00;;;19.59;20.60
58239;BME280;44037;55.638;37.356;2023-05-10T07:48:00;99988.34;;;19.54;20.26
58239;BME280;44037;55.638;37.356;2023-05-10T07:50:27;99998.88;;;19.54;20.69
58239;BME280;44037;55.638;37.356;2023-05-10T07:52:54;99989.81;;;19.66;20.79
58239;BME280;44037;55.638;37.356;2023-05-10T07:55:22;99988.56;;;19.83;20.92
58239;BME280;44037;55.638;37.356;2023-05-10T07:57:49;99990.03;;;19.96;20.50
58239;BME280;44037;55.638;37.356;2023-05-10T08:00:19;99986.28;;;20.08;20.54
58239;BME280;44037;55.638;37.356;2023-05-10T08:02:47;99988.59;;;20.20;20.46
58239;BME280;44037;55.638;37.356;2023-05-10T08:05:14;99985.91;;;20.22;20.23
58239;BME280;44037;55.638;37.356;2023-05-10T08:07:41;99985.19;;;20.15;20.41
58239;BME280;44037;55.638;37.356;2023-05-10T08:10:09;99974.34;;;19.93;20.50
58239;BME280;44037;55.638;37.356;2023-05-10T08:12:37;99984.63;;;19.64;20.68
58239;BME280;44037;55.638;37.356;2023-05-10T08:15:06;99976.22;;;19.47;21.09
58239;BME280;44037;55.638;37.356;2023-05-10T08:17:35;99978.97;;;19.42;21.67
58239;BME280;44037;55.638;37.356;2023-05-10T08:20:03;99970.19;;;19.43;21.72
58239;BME280;44037;55.638;37.356;2023-05-10T08:22:30;99965.78;;;19.45;21.71
58239;BME280;44037;55.638;37.356;2023-05-10T08:24:57;99959.56;;;19.48;21.56
58239;BME280;44037;55.638;37.356;2023-05-10T08:27:24;99974.53;;;19.44;20.96
58239;BME280;44037;55.638;37.356;2023-05-10T08:29:51;99965.28;;;19.28;20.68
58239;BME280;44037;55.638;37.356;2023-05-10T08:32:18;99969.34;;;19.00;21.05
58239;BME280;44037;55.638;37.356;2023-05-10T08:34:47;99960.09;;;18.81;21.85
58239;BME280;44037;55.638;37.356;2023-05-10T08:37:14;99961.09;;;18.75;22.00
58239;BME280;44037;55.638;37.356;2023-05-10T08:39:42;99955.00;;;18.71;22.52
58239;BME280;44037;55.638;37.356;2023-05-10T08:42:09;99950.69;;;18.69;22.20
58239;BME280;44037;55.638;37.356;2023-05-10T08:44:37;99952.59;;;18.61;22.57
58239;BME280;44037;55.638;37.356;2023-05-10T08:47:06;99950.25;;;18.45;22.70
58239;BME280;44037;55.638;37.356;2023-05-10T08:49:33;99954.09;;;18.27;22.49
58239;BME280;44037;55.638;37.356;2023-05-10T08:52:03;99947.56;;;17.98;22.23
58239;BME280;44037;55.638;37.356;2023-05-10T08:54:33;99950.78;;;17.59;22.45
58239;BME280;44037;55.638;37.356;2023-05-10T08:57:11;99946.00;;;17.27;23.48
58239;BME280;44037;55.638;37.356;2023-05-10T08:59:38;99941.78;;;17.15;23.57
58239;BME280;44037;55.638;37.356;2023-05-10T09:02:06;99930.47;;;17.11;23.52
58239;BME280;44037;55.638;37.356;2023-05-10T09:04:37;99937.50;;;17.08;23.36
58239;BME280;44037;55.638;37.356;2023-05-10T09:07:06;99941.94;;;17.04;23.45
58239;BME280;44037;55.638;37.356;2023-05-10T09:09:33;99937.63;;;16.98;23.64
58239;BME280;44037;55.638;37.356;2023-05-10T09:12:01;99946.41;;;16.94;23.52
58239;BME280;44037;55.638;37.356;2023-05-10T09:14:29;99945.59;;;16.86;23.22
58239;BME280;44037;55.638;37.356;2023-05-10T09:16:57;99944.81;;;16.78;22.65
58239;BME280;44037;55.638;37.356;2023-05-10T09:19:24;99937.00;;;16.76;23.39
58239;BME280;44037;55.638;37.356;2023-05-10T09:21:51;99930.69;;;16.91;23.33
58239;BME280;44037;55.638;37.356;2023-05-10T09:24:25;99924.91;;;17.38;23.35
58239;BME280;44037;55.638;37.356;2023-05-10T09:26:52;99921.41;;;17.93;23.15
58239;BME280;44037;55.638;37.356;2023-05-10T09:29:19;99917.72;;;18.55;22.50
58239;BME280;44037;55.638;37.356;2023-05-10T09:31:48;99907.97;;;19.06;21.88
58239;BME280;44037;55.638;37.356;2023-05-10T09:34:18;99901.03;;;19.43;21.79
58239;BME280;44037;55.638;37.356;2023-05-10T09:36:52;99904.44;;;19.84;21.47
58239;BME280;44037;55.638;37.356;2023-05-10T09:39:30;99908.59;;;20.28;20.09
58239;BME280;44037;55.638;37.356;2023-05-10T09:41:58;99893.69;;;20.28;19.70
58239;BME280;44037;55.638;37.356;2023-05-10T09:44:26;99895.53;;;20.24;19.62
58239;BME280;44037;55.638;37.356;2023-05-10T09:46:53;99903.22;;;20.32;20.13
58239;BME280;44037;55.638;37.356;2023-05-10T09:49:21;99922.03;;;20.17;19.63
58239;BME280;44037;55.638;37.356;2023-05-10T09:52:00;99905.78;;;19.64;19.82
58239;BME280;44037;55.638;37.356;2023-05-10T09:54:28;99900.81;;;19.13;21.14
58239;BME280;44037;55.638;37.356;2023-05-10T09:56:56;99902.88;;;19.00;21.09
58239;BME280;44037;55.638;37.356;2023-05-10T09:59:25;99887.84;;;19.07;20.86
58239;BME280;44037;55.638;37.356;2023-05-10T10:01:55;99888.41;;;19.19;21.17
58239;BME280;44037;55.638;37.356;2023-05-10T10:04:23;99890.63;;;19.38;21.01
58239;BME280;44037;55.638;37.356;2023-05-10T10:07:00;99883.13;;;19.59;20.76
58239;BME280;44037;55.638;37.356;2023-05-10T10:09:30;99874.06;;;19.72;20.26
58239;BME280;44037;55.638;37.356;2023-05-10T10:11:57;99877.75;;;19.63;19.90
58239;BME280;44037;55.638;37.356;2023-05-10T10:14:26;99874.59;;;19.51;19.49
58239;BME280;44037;55.638;37.356;2023-05-10T10:16:53;99864.91;;;19.53;20.14
58239;BME280;44037;55.638;37.356;2023-05-10T10:19:21;99867.97;;;19.70;20.42
58239;BME280;44037;55.638;37.356;2023-05-10T10:21:49;99856.31;;;19.80;20.09
58239;BME280;44037;55.638;37.356;2023-05-10T10:24:17;99872.69;;;19.93;19.81
58239;BME280;44037;55.638;37.356;2023-05-10T10:26:52;99863.69;;;20.02;20.02
58239;BME280;44037;55.638;37.356;2023-05-10T10:29:25;99864.72;;;19.97;19.87
58239;BME280;44037;55.638;37.356;2023-05-10T10:32:00;99859.88;;;19.78;20.02
58239;BME280;44037;55.638;37.356;2023-05-10T10:34:30;99853.03;;;19.72;20.30
58239;BME280;44037;55.638;37.356;2023-05-10T10:36:58;99853.94;;;19.71;20.26
58239;BME280;44037;55.638;37.356;2023-05-10T10:39:30;99848.91;;;19.62;20.59
58239;BME280;44037;55.638;37.356;2023-05-10T10:41:59;99851.47;;;19.65;20.90
58239;BME280;44037;55.638;37.356;2023-05-10T10:44:37;99841.44;;;19.79;20.39
58239;BME280;44037;55.638;37.356;2023-05-10T10:47:09;99843.34;;;19.74;20.63
58239;BME280;44037;55.638;37.356;2023-05-10T10:49:44;99845.06;;;19.75;20.63
58239;BME280;44037;55.638;37.356;2023-05-10T10:52:20;99848.19;;;19.91;20.96
58239;BME280;44037;55.638;37.356;2023-05-10T10:54:50;99842.34;;;20.13;20.38
58239;BME280;44037;55.638;37.356;2023-05-10T10:57:20;99847.19;;;20.29;20.37
58239;BME280;44037;55.638;37.356;2023-05-10T10:59:48;99838.19;;;20.37;20.03
58239;BME280;44037;55.638;37.356;2023-05-10T11:02:34;99834.72;;;20.35;20.37
58239;BME280;44037;55.638;37.356;2023-05-10T11:05:33;99832.78;;;20.42;20.38
58239;BME280;44037;55.638;37.356;2023-05-10T11:08:09;99830.84;;;20.49;20.03
58239;BME280;44037;55.638;37.356;2023-05-10T11:10:37;99834.03;;;20.60;20.24
58239;BME280;44037;55.638;37.356;2023-05-10T11:13:06;99824.88;;;20.74;20.05
58239;BME280;44037;55.638;37.356;2023-05-10T11:15:35;99824.59;;;20.83;19.92
58239;BME280;44037;55.638;37.356;2023-05-10T11:18:17;99816.22;;;20.68;20.07
58239;BME280;44037;55.638;37.356;2023-05-10T11:20:50;99818.25;;;20.60;20.28
58239;BME280;44037;55.638;37.356;2023-05-10T11:23:18;99815.69;;;20.57;20.32
58239;BME280;44037;55.638;37.356;2023-05-10T11:25:47;99810.56;;;20.52;20.52
58239;BME280;44037;55.638;37.356;2023-05-10T11:28:17;99813.25;;;20.51;20.81
58239;BME280;44037;55.638;37.356;2023-05-10T11:30:44;99813.06;;;20.57;20.73
58239;BME280;44037;55.638;37.356;2023-05-10T11:33:16;99808.31;;;20.70;20.77
58239;BME280;44037;55.638;37.356;2023-05-10T11:35:43;99807.28;;;20.76;20.78
58239;BME280;44037;55.638;37.356;2023-05-10T11:38:11;99814.63;;;20.64;20.88
58239;BME280;44037;55.638;37.356;2023-05-10T11:40:40;99806.97;;;20.25;20.76
58239;BME280;44037;55.638;37.356;2023-05-10T11:43:09;99809.53;;;19.95;21.24
58239;BME280;44037;55.638;37.356;2023-05-10T11:45:41;99807.13;;;19.86;21.39
58239;BME280;44037;55.638;37.356;2023-05-10T11:48:08;99814.09;;;19.88;21.50
58239;BME280;44037;55.638;37.356;2023-05-10T11:50:35;99802.75;;;19.86;21.55
58239;BME280;44037;55.638;37.356;2023-05-10T11:53:02;99801.22;;;19.77;21.71
58239;BME280;44037;55.638;37.356;2023-05-10T11:55:33;99802.00;;;19.79;21.35
58239;BME280;44037;55.638;37.356;2023-05-10T11:58:01;99801.09;;;19.80;21.64
58239;BME280;44037;55.638;37.356;2023-05-10T12:00:30;99807.38;;;19.76;21.12
58239;BME280;44037;55.638;37.356;2023-05-10T12:03:00;99798.16;;;19.60;20.97
58239;BME280;44037;55.638;37.356;2023-05-10T12:05:28;99790.56;;;19.47;21.45
58239;BME280;44037;55.638;37.356;2023-05-10T12:08:11;99789.63;;;19.50;21.71
58239;BME280;44037;55.638;37.356;2023-05-10T12:10:38;99794.75;;;19.56;21.44
58239;BME280;44037;55.638;37.356;2023-05-10T12:13:10;99799.78;;;19.29;21.54
58239;BME280;44037;55.638;37.356;2023-05-10T12:15:40;99792.66;;;18.97;21.39
58239;BME280;44037;55.638;37.356;2023-05-10T12:18:09;99790.41;;;18.78;22.21
58239;BME280;44037;55.638;37.356;2023-05-10T12:20:37;99787.03;;;18.73;21.96
58239;BME280;44037;55.638;37.356;2023-05-10T12:23:07;99789.78;;;18.68;22.13
58239;BME280;44037;55.638;37.356;2023-05-10T12:25:36;99799.44;;;18.66;22.40
58239;BME280;44037;55.638;37.356;2023-05-10T12:28:06;99781.09;;;18.65;22.05
58239;BME280;44037;55.638;37.356;2023-05-10T12:30:34;99772.25;;;18.69;22.31
58239;BME280;44037;55.638;37.356;2023-05-10T12:33:06;99784.47;;;18.70;22.11
58239;BME280;44037;55.638;37.356;2023-05-10T12:35:44;99789.16;;;18.55;22.52
58239;BME280;44037;55.638;37.356;2023-05-10T12:38:29;99777.19;;;18.42;22.94
58239;BME280;44037;55.638;37.356;2023-05-10T12:41:00;99771.66;;;18.56;23.07
58239;BME280;44037;55.638;37.356;2023-05-10T12:43:28;99774.50;;;18.86;22.72
58239;BME280;44037;55.638;37.356;2023-05-10T12:45:55;99776.66;;;19.08;22.54
58239;BME280;44037;55.638;37.356;2023-05-10T12:48:22;99772.88;;;19.19;22.48
58239;BME280;44037;55.638;37.356;2023-05-10T12:50:54;99773.56;;;19.28;22.74
58239;BME280;44037;55.638;37.356;2023-05-10T12:53:21;99776.81;;;19.38;22.05
58239;BME280;44037;55.638;37.356;2023-05-10T12:55:48;99768.09;;;19.36;22.49
58239;BME280;44037;55.638;37.356;2023-05-10T12:58:15;99776.84;;;19.36;22.20
58239;BME280;44037;55.638;37.356;2023-05-10T13:00:42;99775.44;;;19.23;21.64
58239;BME280;44037;55.638;37.356;2023-05-10T13:03:10;99769.13;;;18.91;22.29
58239;BME280;44037;55.638;37.356;2023-05-10T13:05:38;99766.31;;;18.61;22.63